sensor_id;sensor_type;location;lat;lon;timestamp;P1;durP1;ratioP1;P2;durP2;ratioP2
49584;SDS011;35491;49.142;9.210;2022-12-13T08:57:18;33.88;;;19.65;;
49584;SDS011;35491;49.142;9.210;2022-12-13T08:58:22;33.90;;;19.13;;
49584;SDS011;35491;49.142;9.210;2022-12-13T08:59:26;31.02;;;20.38;;
49584;SDS011;35491;49.142;9.210;2022-12-13T09:00:31;33.20;;;19.02;;
49584;SDS011;35491;49.142;9.210;2022-12-13T09:01:35;36.30;;;20.98;;
49584;SDS011;35491;49.142;9.210;2022-12-13T09:02:39;31.02;;;20.17;;
49584;SDS011;35491;49.142;9.210;2022-12-13T09:03:44;31.45;;;19.60;;
49584;SDS011;35491;49.142;9.210;2022-12-13T09:04:50;30.70;;;18.48;;
49584;SDS011;35491;49.142;9.210;2022-12-13T09:05:54;29.00;;;18.75;;
49584;SDS011;35491;49.142;9.210;2022-12-13T09:06:58;32.58;;;20.38;;
49584;SDS011;35491;49.142;9.210;2022-12-13T09:08:00;32.30;;;20.30;;
49584;SDS011;35491;49.142;9.210;2022-12-13T09:09:05;33.53;;;20.02;;
49584;SDS011;35491;49.142;9.210;2022-12-13T09:10:10;40.03;;;19.90;;
49584;SDS011;35491;49.142;9.210;2022-12-13T09:11:14;35.05;;;20.38;;
49584;SDS011;35491;49.142;9.210;2022-12-13T09:12:26;30.27;;;19.17;;
49584;SDS011;35491;49.142;9.210;2022-12-13T09:13:47;31.17;;;18.65;;
49584;SDS011;35491;49.142;9.210;2022-12-13T09:14:51;28.27;;;17.35;;
49584;SDS011;35491;49.142;9.210;2022-12-13T09:15:55;30.40;;;18.77;;
49584;SDS011;35491;49.142;9.210;2022-12-13T09:17:00;30.10;;;18.45;;
49584;SDS011;35491;49.142;9.210;2022-12-13T09:18:04;37.17;;;19.85;;
49584;SDS011;35491;49.142;9.210;2022-12-13T09:19:09;35.20;;;19.20;;
49584;SDS011;35491;49.142;9.210;2022-12-13T09:20:15;28.02;;;18.45;;
49584;SDS011;35491;49.142;9.210;2022-12-13T09:21:20;29.20;;;18.05;;
49584;SDS011;35491;49.142;9.210;2022-12-13T09:22:33;26.33;;;16.90;;
49584;SDS011;35491;49.142;9.210;2022-12-13T09:23:41;29.38;;;17.23;;
49584;SDS011;35491;49.142;9.210;2022-12-13T09:24:45;27.70;;;16.98;;
49584;SDS011;35491;49.142;9.210;2022-12-13T09:25:53;35.75;;;18.83;;
49584;SDS011;35491;49.142;9.210;2022-12-13T09:26:58;28.33;;;17.60;;
49584;SDS011;35491;49.142;9.210;2022-12-13T09:28:06;34.67;;;19.77;;
49584;SDS011;35491;49.142;9.210;2022-12-13T09:29:10;27.80;;;17.95;;
49584;SDS011;35491;49.142;9.210;2022-12-13T09:30:16;30.55;;;19.05;;
49584;SDS011;35491;49.142;9.210;2022-12-13T09:31:20;31.48;;;18.42;;
49584;SDS011;35491;49.142;9.210;2022-12-13T09:32:25;34.92;;;18.38;;
49584;SDS011;35491;49.142;9.210;2022-12-13T09:33:29;31.88;;;19.38;;
49584;SDS011;35491;49.142;9.210;2022-12-13T09:34:34;29.58;;;17.70;;
49584;SDS011;35491;49.142;9.210;2022-12-13T09:36:01;27.30;;;16.73;;
49584;SDS011;35491;49.142;9.210;2022-12-13T09:37:06;32.67;;;17.75;;
49584;SDS011;35491;49.142;9.210;2022-12-13T09:38:13;26.35;;;16.63;;
49584;SDS011;35491;49.142;9.210;2022-12-13T09:39:15;29.95;;;18.60;;
49584;SDS011;35491;49.142;9.210;2022-12-13T09:40:20;32.55;;;18.38;;
49584;SDS011;35491;49.142;9.210;2022-12-13T09:41:27;31.15;;;18.67;;
49584;SDS011;35491;49.142;9.210;2022-12-13T09:42:35;29.73;;;19.60;;
49584;SDS011;35491;49.142;9.210;2022-12-13T09:43:42;29.92;;;18.35;;
49584;SDS011;35491;49.142;9.210;2022-12-13T09:44:48;27.02;;;16.23;;
49584;SDS011;35491;49.142;9.210;2022-12-13T09:45:55;35.70;;;18.83;;
49584;SDS011;35491;49.142;9.210;2022-12-13T09:47:02;29.98;;;17.80;;
49584;SDS011;35491;49.142;9.210;2022-12-13T09:48:10;29.92;;;17.95;;
49584;SDS011;35491;49.142;9.210;2022-12-13T09:49:21;28.67;;;17.23;;
49584;SDS011;35491;49.142;9.210;2022-12-13T09:50:33;29.30;;;16.45;;
49584;SDS011;35491;49.142;9.210;2022-12-13T09:51:38;26.77;;;16.92;;
49584;SDS011;35491;49.142;9.210;2022-12-13T09:52:43;26.00;;;15.75;;
49584;SDS011;35491;49.142;9.210;2022-12-13T09:53:49;24.90;;;15.77;;
49584;SDS011;35491;49.142;9.210;2022-12-13T09:54:55;24.45;;;15.73;;
49584;SDS011;35491;49.142;9.210;2022-12-13T09:56:01;25.33;;;15.80;;
49584;SDS011;35491;49.142;9.210;2022-12-13T09:57:03;22.58;;;14.82;;
49584;SDS011;35491;49.142;9.210;2022-12-13T09:58:10;25.35;;;16.52;;
49584;SDS011;35491;49.142;9.210;2022-12-13T09:59:20;21.00;;;14.43;;
49584;SDS011;35491;49.142;9.210;2022-12-13T10:00:32;24.33;;;14.48;;
49584;SDS011;35491;49.142;9.210;2022-12-13T10:01:37;26.85;;;17.75;;
49584;SDS011;35491;49.142;9.210;2022-12-13T10:02:43;25.55;;;16.35;;
49584;SDS011;35491;49.142;9.210;2022-12-13T10:03:49;31.42;;;16.65;;
49584;SDS011;35491;49.142;9.210;2022-12-13T10:04:56;26.52;;;16.98;;
49584;SDS011;35491;49.142;9.210;2022-12-13T10:06:12;27.80;;;15.35;;
49584;SDS011;35491;49.142;9.210;2022-12-13T10:07:19;29.92;;;16.73;;
49584;SDS011;35491;49.142;9.210;2022-12-13T10:08:26;26.00;;;17.30;;
49584;SDS011;35491;49.142;9.210;2022-12-13T10:09:34;27.40;;;17.50;;
49584;SDS011;35491;49.142;9.210;2022-12-13T10:10:38;27.42;;;15.70;;
49584;SDS011;35491;49.142;9.210;2022-12-13T10:11:47;30.98;;;18.35;;
49584;SDS011;35491;49.142;9.210;2022-12-13T10:12:54;29.83;;;17.50;;
49584;SDS011;35491;49.142;9.210;2022-12-13T10:14:07;24.77;;;16.98;;
49584;SDS011;35491;49.142;9.210;2022-12-13T10:15:16;28.20;;;16.88;;
49584;SDS011;35491;49.142;9.210;2022-12-13T10:16:23;29.98;;;16.85;;
49584;SDS011;35491;49.142;9.210;2022-12-13T10:17:32;24.35;;;15.25;;
49584;SDS011;35491;49.142;9.210;2022-12-13T10:18:41;27.67;;;17.35;;
49584;SDS011;35491;49.142;9.210;2022-12-13T10:19:47;28.17;;;17.67;;
49584;SDS011;35491;49.142;9.210;2022-12-13T10:20:51;25.75;;;15.55;;
49584;SDS011;35491;49.142;9.210;2022-12-13T10:21:56;26.58;;;17.00;;
49584;SDS011;35491;49.142;9.210;2022-12-13T10:23:02;27.13;;;16.05;;
49584;SDS011;35491;49.142;9.210;2022-12-13T10:24:20;28.10;;;16.25;;
49584;SDS011;35491;49.142;9.210;2022-12-13T10:26:50;29.38;;;17.17;;
49584;SDS011;35491;49.142;9.210;2022-12-13T10:27:54;30.60;;;16.92;;
49584;SDS011;35491;49.142;9.210;2022-12-13T10:29:00;26.52;;;16.25;;
49584;SDS011;35491;49.142;9.210;2022-12-13T10:30:07;30.60;;;18.60;;
49584;SDS011;35491;49.142;9.210;2022-12-13T10:31:18;32.33;;;18.20;;
49584;SDS011;35491;49.142;9.210;2022-12-13T10:32:23;26.58;;;16.15;;
49584;SDS011;35491;49.142;9.210;2022-12-13T10:33:29;27.35;;;17.15;;
49584;SDS011;35491;49.142;9.210;2022-12-13T10:34:35;25.83;;;16.42;;
49584;SDS011;35491;49.142;9.210;2022-12-13T10:35:40;24.90;;;15.70;;
49584;SDS011;35491;49.142;9.210;2022-12-13T10:36:41;21.38;;;14.15;;
49584;SDS011;35491;49.142;9.210;2022-12-13T10:37:46;23.92;;;15.45;;
49584;SDS011;35491;49.142;9.210;2022-12-13T10:38:50;23.67;;;15.48;;
49584;SDS011;35491;49.142;9.210;2022-12-13T10:39:54;23.98;;;15.70;;
49584;SDS011;35491;49.142;9.210;2022-12-13T10:40:59;23.15;;;15.07;;
49584;SDS011;35491;49.142;9.210;2022-12-13T10:42:01;24.55;;;16.25;;
49584;SDS011;35491;49.142;9.210;2022-12-13T10:43:06;25.35;;;17.23;;
49584;SDS011;35491;49.142;9.210;2022-12-13T10:44:18;26.63;;;16.98;;
49584;SDS011;35491;49.142;9.210;2022-12-13T10:45:24;26.95;;;16.63;;
49584;SDS011;35491;49.142;9.210;2022-12-13T10:46:31;25.83;;;16.33;;
49584;SDS011;35491;49.142;9.210;2022-12-13T10:47:35;25.90;;;16.58;;
49584;SDS011;35491;49.142;9.210;2022-12-13T10:48:45;27.88;;;16.00;;
49584;SDS011;35491;49.142;9.210;2022-12-13T10:49:49;25.27;;;16.38;;
49584;SDS011;35491;49.142;9.210;2022-12-13T10:50:57;25.80;;;16.80;;
49584;SDS011;35491;49.142;9.210;2022-12-13T10:52:00;26.00;;;15.35;;
49584;SDS011;35491;49.142;9.210;2022-12-13T10:53:05;24.75;;;15.77;;
49584;SDS011;35491;49.142;9.210;2022-12-13T10:54:10;27.33;;;17.13;;
49584;SDS011;35491;49.142;9.210;2022-12-13T10:56:32;25.05;;;15.45;;
49584;SDS011;35491;49.142;9.210;2022-12-13T10:57:38;28.30;;;16.48;;
49584;SDS011;35491;49.142;9.210;2022-12-13T10:58:43;24.67;;;16.42;;
49584;SDS011;35491;49.142;9.210;2022-12-13T10:59:49;23.92;;;15.77;;
49584;SDS011;35491;49.142;9.210;2022-12-13T11:00:54;29.48;;;15.80;;
49584;SDS011;35491;49.142;9.210;2022-12-13T11:02:29;23.90;;;15.25;;
49584;SDS011;35491;49.142;9.210;2022-12-13T11:03:35;25.25;;;16.15;;
49584;SDS011;35491;49.142;9.210;2022-12-13T11:04:39;27.63;;;16.27;;
49584;SDS011;35491;49.142;9.210;2022-12-13T11:05:43;25.25;;;15.55;;
49584;SDS011;35491;49.142;9.210;2022-12-13T11:06:49;28.73;;;16.20;;
49584;SDS011;35491;49.142;9.210;2022-12-13T11:07:51;25.02;;;16.00;;
49584;SDS011;35491;49.142;9.210;2022-12-13T11:08:56;28.38;;;17.55;;
49584;SDS011;35491;49.142;9.210;2022-12-13T11:10:14;24.27;;;15.63;;
49584;SDS011;35491;49.142;9.210;2022-12-13T11:11:26;24.63;;;15.65;;
49584;SDS011;35491;49.142;9.210;2022-12-13T11:12:31;24.60;;;14.77;;
49584;SDS011;35491;49.142;9.210;2022-12-13T11:13:36;25.95;;;16.17;;
49584;SDS011;35491;49.142;9.210;2022-12-13T11:14:47;26.90;;;16.92;;
49584;SDS011;35491;49.142;9.210;2022-12-13T11:15:55;26.17;;;15.18;;
49584;SDS011;35491;49.142;9.210;2022-12-13T11:17:08;27.58;;;16.02;;
49584;SDS011;35491;49.142;9.210;2022-12-13T11:18:22;23.35;;;14.75;;
49584;SDS011;35491;49.142;9.210;2022-12-13T11:19:30;24.98;;;15.73;;
49584;SDS011;35491;49.142;9.210;2022-12-13T11:20:52;22.23;;;14.97;;
49584;SDS011;35491;49.142;9.210;2022-12-13T11:21:58;26.38;;;15.48;;
49584;SDS011;35491;49.142;9.210;2022-12-13T11:23:04;26.10;;;15.93;;
49584;SDS011;35491;49.142;9.210;2022-12-13T11:24:17;23.63;;;15.00;;
49584;SDS011;35491;49.142;9.210;2022-12-13T11:25:26;28.25;;;16.33;;
49584;SDS011;35491;49.142;9.210;2022-12-13T11:26:37;26.77;;;15.45;;
49584;SDS011;35491;49.142;9.210;2022-12-13T11:27:46;27.77;;;16.45;;
49584;SDS011;35491;49.142;9.210;2022-12-13T11:29:14;24.38;;;16.00;;
49584;SDS011;35491;49.142;9.210;2022-12-13T11:30:32;25.90;;;15.45;;
49584;SDS011;35491;49.142;9.210;2022-12-13T11:31:47;28.73;;;17.73;;
49584;SDS011;35491;49.142;9.210;2022-12-13T11:33:04;25.75;;;15.93;;
49584;SDS011;35491;49.142;9.210;2022-12-13T11:34:22;22.40;;;14.88;;
49584;SDS011;35491;49.142;9.210;2022-12-13T11:35:39;25.08;;;15.50;;
49584;SDS011;35491;49.142;9.210;2022-12-13T11:36:55;26.40;;;16.08;;
49584;SDS011;35491;49.142;9.210;2022-12-13T11:38:06;24.73;;;15.55;;
49584;SDS011;35491;49.142;9.210;2022-12-13T11:39:24;26.75;;;15.70;;
49584;SDS011;35491;49.142;9.210;2022-12-13T11:40:35;26.98;;;16.23;;
49584;SDS011;35491;49.142;9.210;2022-12-13T11:41:48;25.33;;;16.63;;
49584;SDS011;35491;49.142;9.210;2022-12-13T11:42:58;25.20;;;14.90;;
49584;SDS011;35491;49.142;9.210;2022-12-13T11:45:15;24.05;;;15.55;;
49584;SDS011;35491;49.142;9.210;2022-12-13T11:46:25;23.92;;;15.20;;
49584;SDS011;35491;49.142;9.210;2022-12-13T11:47:38;26.83;;;16.10;;
49584;SDS011;35491;49.142;9.210;2022-12-13T11:48:48;27.17;;;16.30;;
49584;SDS011;35491;49.142;9.210;2022-12-13T11:49:58;28.90;;;17.08;;
49584;SDS011;35491;49.142;9.210;2022-12-13T11:51:08;24.55;;;16.13;;
49584;SDS011;35491;49.142;9.210;2022-12-13T11:52:16;24.92;;;15.75;;
49584;SDS011;35491;49.142;9.210;2022-12-13T11:53:25;23.52;;;14.45;;
49584;SDS011;35491;49.142;9.210;2022-12-13T11:54:33;26.10;;;15.20;;
49584;SDS011;35491;49.142;9.210;2022-12-13T11:55:46;25.85;;;16.77;;
49584;SDS011;35491;49.142;9.210;2022-12-13T11:56:55;26.23;;;15.77;;
49584;SDS011;35491;49.142;9.210;2022-12-13T11:58:05;24.08;;;15.43;;
49584;SDS011;35491;49.142;9.210;2022-12-13T11:59:19;24.48;;;15.50;;
49584;SDS011;35491;49.142;9.210;2022-12-13T12:00:31;23.70;;;14.30;;
49584;SDS011;35491;49.142;9.210;2022-12-13T12:01:38;24.83;;;14.85;;
49584;SDS011;35491;49.142;9.210;2022-12-13T12:02:48;23.65;;;14.40;;
49584;SDS011;35491;49.142;9.210;2022-12-13T12:05:13;30.48;;;16.80;;
49584;SDS011;35491;49.142;9.210;2022-12-13T12:06:28;23.58;;;13.95;;
49584;SDS011;35491;49.142;9.210;2022-12-13T12:07:38;22.25;;;15.13;;
49584;SDS011;35491;49.142;9.210;2022-12-13T12:08:47;23.45;;;14.63;;
49584;SDS011;35491;49.142;9.210;2022-12-13T12:10:00;22.70;;;15.13;;
49584;SDS011;35491;49.142;9.210;2022-12-13T12:11:18;25.15;;;15.02;;
49584;SDS011;35491;49.142;9.210;2022-12-13T12:12:31;25.00;;;15.68;;
49584;SDS011;35491;49.142;9.210;2022-12-13T12:13:38;24.13;;;14.20;;
49584;SDS011;35491;49.142;9.210;2022-12-13T12:14:45;22.90;;;14.45;;
49584;SDS011;35491;49.142;9.210;2022-12-13T12:15:58;24.33;;;14.68;;
49584;SDS011;35491;49.142;9.210;2022-12-13T12:17:11;24.30;;;14.80;;
49584;SDS011;35491;49.142;9.210;2022-12-13T12:18:16;22.95;;;14.00;;
49584;SDS011;35491;49.142;9.210;2022-12-13T12:19:22;23.25;;;13.80;;
49584;SDS011;35491;49.142;9.210;2022-12-13T12:20:36;20.67;;;13.88;;
49584;SDS011;35491;49.142;9.210;2022-12-13T12:21:55;23.10;;;13.95;;
49584;SDS011;35491;49.142;9.210;2022-12-13T12:23:13;19.17;;;12.80;;
49584;SDS011;35491;49.142;9.210;2022-12-13T12:24:27;21.40;;;13.20;;
49584;SDS011;35491;49.142;9.210;2022-12-13T12:25:38;25.52;;;14.15;;
49584;SDS011;35491;49.142;9.210;2022-12-13T12:26:51;22.88;;;13.43;;
49584;SDS011;35491;49.142;9.210;2022-12-13T12:28:11;22.00;;;14.60;;
49584;SDS011;35491;49.142;9.210;2022-12-13T12:29:36;23.08;;;14.30;;
49584;SDS011;35491;49.142;9.210;2022-12-13T12:30:57;20.05;;;12.98;;
49584;SDS011;35491;49.142;9.210;2022-12-13T12:32:13;21.13;;;12.77;;
49584;SDS011;35491;49.142;9.210;2022-12-13T12:33:31;24.10;;;13.32;;
49584;SDS011;35491;49.142;9.210;2022-12-13T12:34:44;21.75;;;12.48;;
49584;SDS011;35491;49.142;9.210;2022-12-13T12:36:08;22.05;;;14.35;;
49584;SDS011;35491;49.142;9.210;2022-12-13T12:37:24;23.58;;;14.63;;
49584;SDS011;35491;49.142;9.210;2022-12-13T12:40:36;25.33;;;15.60;;
49584;SDS011;35491;49.142;9.210;2022-12-13T12:41:58;21.05;;;13.80;;
49584;SDS011;35491;49.142;9.210;2022-12-13T12:43:15;21.70;;;14.02;;
49584;SDS011;35491;49.142;9.210;2022-12-13T12:44:28;23.48;;;15.43;;
49584;SDS011;35491;49.142;9.210;2022-12-13T12:46:50;23.23;;;14.75;;
49584;SDS011;35491;49.142;9.210;2022-12-13T12:48:07;21.48;;;13.68;;
49584;SDS011;35491;49.142;9.210;2022-12-13T12:50:58;23.80;;;14.68;;
49584;SDS011;35491;49.142;9.210;2022-12-13T12:52:12;24.65;;;15.13;;
49584;SDS011;35491;49.142;9.210;2022-12-13T12:53:34;24.73;;;14.30;;
49584;SDS011;35491;49.142;9.210;2022-12-13T12:54:47;25.98;;;15.27;;
49584;SDS011;35491;49.142;9.210;2022-12-13T12:56:09;22.33;;;13.85;;
49584;SDS011;35491;49.142;9.210;2022-12-13T12:57:25;22.63;;;14.10;;
49584;SDS011;35491;49.142;9.210;2022-12-13T12:58:42;21.40;;;13.88;;
49584;SDS011;35491;49.142;9.210;2022-12-13T12:59:56;24.02;;;14.70;;
49584;SDS011;35491;49.142;9.210;2022-12-13T13:01:10;19.95;;;12.98;;
49584;SDS011;35491;49.142;9.210;2022-12-13T13:02:24;21.85;;;14.27;;
49584;SDS011;35491;49.142;9.210;2022-12-13T13:03:48;23.05;;;14.50;;
49584;SDS011;35491;49.142;9.210;2022-12-13T13:04:57;21.45;;;13.85;;
49584;SDS011;35491;49.142;9.210;2022-12-13T13:07:17;21.20;;;13.20;;
49584;SDS011;35491;49.142;9.210;2022-12-13T13:08:27;19.92;;;13.68;;
49584;SDS011;35491;49.142;9.210;2022-12-13T13:10:41;21.60;;;13.88;;
49584;SDS011;35491;49.142;9.210;2022-12-13T13:11:47;23.55;;;13.70;;
49584;SDS011;35491;49.142;9.210;2022-12-13T13:12:52;22.77;;;13.90;;
49584;SDS011;35491;49.142;9.210;2022-12-13T13:14:02;22.05;;;13.30;;
49584;SDS011;35491;49.142;9.210;2022-12-13T13:16:46;20.58;;;13.30;;
49584;SDS011;35491;49.142;9.210;2022-12-13T13:17:56;21.23;;;13.95;;
49584;SDS011;35491;49.142;9.210;2022-12-13T13:19:02;21.80;;;13.75;;
49584;SDS011;35491;49.142;9.210;2022-12-13T13:20:11;22.33;;;13.90;;
49584;SDS011;35491;49.142;9.210;2022-12-13T13:22:49;21.42;;;12.77;;
49584;SDS011;35491;49.142;9.210;2022-12-13T13:24:04;21.38;;;13.18;;
49584;SDS011;35491;49.142;9.210;2022-12-13T13:25:17;23.25;;;14.70;;
49584;SDS011;35491;49.142;9.210;2022-12-13T13:26:26;20.13;;;12.73;;
49584;SDS011;35491;49.142;9.210;2022-12-13T13:27:31;19.08;;;12.50;;
49584;SDS011;35491;49.142;9.210;2022-12-13T13:28:39;25.73;;;14.45;;
49584;SDS011;35491;49.142;9.210;2022-12-13T13:31:00;24.95;;;13.93;;
49584;SDS011;35491;49.142;9.210;2022-12-13T13:32:22;22.33;;;13.18;;
49584;SDS011;35491;49.142;9.210;2022-12-13T13:33:38;21.05;;;13.07;;
49584;SDS011;35491;49.142;9.210;2022-12-13T13:34:47;23.40;;;14.60;;
49584;SDS011;35491;49.142;9.210;2022-12-13T13:35:51;21.27;;;13.50;;
49584;SDS011;35491;49.142;9.210;2022-12-13T13:36:56;19.35;;;13.23;;
49584;SDS011;35491;49.142;9.210;2022-12-13T13:39:59;23.05;;;14.23;;
49584;SDS011;35491;49.142;9.210;2022-12-13T13:43:00;22.92;;;13.75;;
49584;SDS011;35491;49.142;9.210;2022-12-13T13:47:58;21.42;;;13.55;;
49584;SDS011;35491;49.142;9.210;2022-12-13T13:49:32;22.60;;;13.15;;
49584;SDS011;35491;49.142;9.210;2022-12-13T13:55:10;21.27;;;13.00;;
49584;SDS011;35491;49.142;9.210;2022-12-13T13:57:14;21.95;;;12.07;;
49584;SDS011;35491;49.142;9.210;2022-12-13T14:00:34;18.92;;;11.93;;
49584;SDS011;35491;49.142;9.210;2022-12-13T14:01:58;20.40;;;12.10;;
49584;SDS011;35491;49.142;9.210;2022-12-13T14:05:04;24.58;;;13.48;;
49584;SDS011;35491;49.142;9.210;2022-12-13T14:08:24;21.58;;;13.05;;
49584;SDS011;35491;49.142;9.210;2022-12-13T14:11:14;19.25;;;12.10;;
49584;SDS011;35491;49.142;9.210;2022-12-13T14:14:24;20.85;;;12.45;;
49584;SDS011;35491;49.142;9.210;2022-12-13T14:21:04;27.27;;;13.80;;
49584;SDS011;35491;49.142;9.210;2022-12-13T14:22:18;20.88;;;12.80;;
49584;SDS011;35491;49.142;9.210;2022-12-13T14:23:34;22.85;;;13.80;;
49584;SDS011;35491;49.142;9.210;2022-12-13T14:24:49;23.27;;;14.15;;
49584;SDS011;35491;49.142;9.210;2022-12-13T14:26:10;27.33;;;13.00;;
49584;SDS011;35491;49.142;9.210;2022-12-13T14:30:11;22.58;;;14.40;;
49584;SDS011;35491;49.142;9.210;2022-12-13T14:31:19;22.42;;;13.82;;
49584;SDS011;35491;49.142;9.210;2022-12-13T14:32:29;22.42;;;13.55;;
49584;SDS011;35491;49.142;9.210;2022-12-13T14:33:37;21.60;;;13.20;;
49584;SDS011;35491;49.142;9.210;2022-12-13T14:34:44;22.58;;;14.10;;
49584;SDS011;35491;49.142;9.210;2022-12-13T14:35:54;25.55;;;14.45;;
49584;SDS011;35491;49.142;9.210;2022-12-13T14:37:17;21.02;;;14.00;;
49584;SDS011;35491;49.142;9.210;2022-12-13T14:40:31;21.35;;;12.88;;
49584;SDS011;35491;49.142;9.210;2022-12-13T14:41:56;23.65;;;13.98;;
49584;SDS011;35491;49.142;9.210;2022-12-13T14:43:36;23.42;;;13.60;;
49584;SDS011;35491;49.142;9.210;2022-12-13T14:45:17;24.15;;;13.35;;
49584;SDS011;35491;49.142;9.210;2022-12-13T14:49:59;24.10;;;13.88;;
49584;SDS011;35491;49.142;9.210;2022-12-13T14:51:01;24.13;;;13.95;;
49584;SDS011;35491;49.142;9.210;2022-12-13T14:52:06;20.83;;;13.30;;
49584;SDS011;35491;49.142;9.210;2022-12-13T14:53:22;25.40;;;15.07;;
49584;SDS011;35491;49.142;9.210;2022-12-13T14:55:35;23.55;;;13.52;;
49584;SDS011;35491;49.142;9.210;2022-12-13T14:56:52;23.77;;;14.23;;
49584;SDS011;35491;49.142;9.210;2022-12-13T14:57:58;29.35;;;18.00;;
49584;SDS011;35491;49.142;9.210;2022-12-13T14:59:11;24.30;;;14.55;;
49584;SDS011;35491;49.142;9.210;2022-12-13T15:00:20;24.50;;;14.75;;
49584;SDS011;35491;49.142;9.210;2022-12-13T15:01:27;26.38;;;16.20;;
49584;SDS011;35491;49.142;9.210;2022-12-13T15:02:33;27.83;;;17.70;;
49584;SDS011;35491;49.142;9.210;2022-12-13T15:03:37;23.40;;;14.98;;
49584;SDS011;35491;49.142;9.210;2022-12-13T15:04:41;30.75;;;15.60;;
49584;SDS011;35491;49.142;9.210;2022-12-13T15:05:50;22.70;;;14.48;;
49584;SDS011;35491;49.142;9.210;2022-12-13T15:06:55;28.23;;;16.55;;
49584;SDS011;35491;49.142;9.210;2022-12-13T15:08:06;21.40;;;13.30;;
49584;SDS011;35491;49.142;9.210;2022-12-13T15:09:11;20.70;;;13.13;;
49584;SDS011;35491;49.142;9.210;2022-12-13T15:10:17;22.80;;;13.43;;
49584;SDS011;35491;49.142;9.210;2022-12-13T15:11:24;21.98;;;13.20;;
49584;SDS011;35491;49.142;9.210;2022-12-13T15:12:25;20.23;;;13.18;;
49584;SDS011;35491;49.142;9.210;2022-12-13T15:13:31;21.98;;;13.48;;
49584;SDS011;35491;49.142;9.210;2022-12-13T15:14:40;23.20;;;13.63;;
49584;SDS011;35491;49.142;9.210;2022-12-13T15:15:49;20.30;;;12.60;;
49584;SDS011;35491;49.142;9.210;2022-12-13T15:16:56;23.05;;;14.82;;
49584;SDS011;35491;49.142;9.210;2022-12-13T15:18:15;25.58;;;14.90;;
49584;SDS011;35491;49.142;9.210;2022-12-13T15:20:37;20.65;;;13.00;;
49584;SDS011;35491;49.142;9.210;2022-12-13T15:21:56;21.55;;;13.20;;
49584;SDS011;35491;49.142;9.210;2022-12-13T15:23:09;20.55;;;12.63;;
49584;SDS011;35491;49.142;9.210;2022-12-13T15:24:19;19.67;;;12.43;;
49584;SDS011;35491;49.142;9.210;2022-12-13T15:25:27;20.63;;;13.02;;
49584;SDS011;35491;49.142;9.210;2022-12-13T15:26:32;19.80;;;12.48;;
49584;SDS011;35491;49.142;9.210;2022-12-13T15:28:59;24.13;;;14.00;;
49584;SDS011;35491;49.142;9.210;2022-12-13T15:30:11;21.10;;;12.93;;
49584;SDS011;35491;49.142;9.210;2022-12-13T15:31:17;21.70;;;13.02;;
49584;SDS011;35491;49.142;9.210;2022-12-13T15:32:44;18.35;;;12.18;;
49584;SDS011;35491;49.142;9.210;2022-12-13T15:36:51;25.95;;;13.90;;
49584;SDS011;35491;49.142;9.210;2022-12-13T15:38:22;23.35;;;14.52;;
49584;SDS011;35491;49.142;9.210;2022-12-13T15:40:05;25.58;;;14.13;;
49584;SDS011;35491;49.142;9.210;2022-12-13T15:41:24;22.40;;;14.18;;
49584;SDS011;35491;49.142;9.210;2022-12-13T15:42:29;20.33;;;13.45;;
49584;SDS011;35491;49.142;9.210;2022-12-13T15:43:36;22.45;;;12.82;;
49584;SDS011;35491;49.142;9.210;2022-12-13T15:44:47;20.05;;;12.82;;
49584;SDS011;35491;49.142;9.210;2022-12-13T15:45:53;25.73;;;15.35;;
49584;SDS011;35491;49.142;9.210;2022-12-13T15:47:11;21.23;;;13.52;;
49584;SDS011;35491;49.142;9.210;2022-12-13T15:48:20;22.33;;;13.93;;
49584;SDS011;35491;49.142;9.210;2022-12-13T15:49:30;28.10;;;14.15;;
49584;SDS011;35491;49.142;9.210;2022-12-13T15:50:38;21.58;;;13.80;;
49584;SDS011;35491;49.142;9.210;2022-12-13T15:51:55;24.17;;;14.65;;
49584;SDS011;35491;49.142;9.210;2022-12-13T15:53:00;23.50;;;13.77;;
49584;SDS011;35491;49.142;9.210;2022-12-13T15:54:05;22.88;;;14.15;;
49584;SDS011;35491;49.142;9.210;2022-12-13T15:55:22;21.92;;;12.25;;
49584;SDS011;35491;49.142;9.210;2022-12-13T15:56:29;21.58;;;13.80;;
49584;SDS011;35491;49.142;9.210;2022-12-13T15:57:35;23.75;;;14.10;;
49584;SDS011;35491;49.142;9.210;2022-12-13T15:58:52;22.33;;;13.57;;
49584;SDS011;35491;49.142;9.210;2022-12-13T16:00:07;20.92;;;13.18;;
49584;SDS011;35491;49.142;9.210;2022-12-13T16:01:25;26.77;;;14.38;;
49584;SDS011;35491;49.142;9.210;2022-12-13T16:02:31;20.48;;;13.10;;
49584;SDS011;35491;49.142;9.210;2022-12-13T16:03:38;25.85;;;14.25;;
49584;SDS011;35491;49.142;9.210;2022-12-13T16:04:46;23.35;;;14.38;;
49584;SDS011;35491;49.142;9.210;2022-12-13T16:05:52;23.33;;;14.27;;
49584;SDS011;35491;49.142;9.210;2022-12-13T16:07:01;24.27;;;14.88;;
49584;SDS011;35491;49.142;9.210;2022-12-13T16:08:05;24.52;;;13.90;;
49584;SDS011;35491;49.142;9.210;2022-12-13T16:09:34;26.98;;;14.80;;
49584;SDS011;35491;49.142;9.210;2022-12-13T16:10:46;22.50;;;13.57;;
49584;SDS011;35491;49.142;9.210;2022-12-13T16:13:34;23.65;;;14.27;;
49584;SDS011;35491;49.142;9.210;2022-12-13T16:14:41;26.65;;;14.38;;
49584;SDS011;35491;49.142;9.210;2022-12-13T16:15:46;21.63;;;13.95;;
49584;SDS011;35491;49.142;9.210;2022-12-13T16:16:53;22.70;;;13.05;;
49584;SDS011;35491;49.142;9.210;2022-12-13T16:18:05;23.33;;;13.73;;
49584;SDS011;35491;49.142;9.210;2022-12-13T16:19:21;25.17;;;13.88;;
49584;SDS011;35491;49.142;9.210;2022-12-13T16:20:23;22.85;;;14.68;;
49584;SDS011;35491;49.142;9.210;2022-12-13T16:21:29;27.20;;;15.55;;
49584;SDS011;35491;49.142;9.210;2022-12-13T16:22:38;24.70;;;15.02;;
49584;SDS011;35491;49.142;9.210;2022-12-13T16:23:42;23.90;;;15.15;;
49584;SDS011;35491;49.142;9.210;2022-12-13T16:24:54;26.42;;;15.00;;
49584;SDS011;35491;49.142;9.210;2022-12-13T16:26:00;24.10;;;14.85;;
49584;SDS011;35491;49.142;9.210;2022-12-13T16:27:10;26.23;;;14.75;;
49584;SDS011;35491;49.142;9.210;2022-12-13T16:28:14;23.83;;;14.82;;
49584;SDS011;35491;49.142;9.210;2022-12-13T16:29:21;25.42;;;15.00;;
49584;SDS011;35491;49.142;9.210;2022-12-13T16:30:23;25.58;;;15.13;;
49584;SDS011;35491;49.142;9.210;2022-12-13T16:31:28;23.35;;;14.32;;
49584;SDS011;35491;49.142;9.210;2022-12-13T16:32:35;23.25;;;14.93;;
49584;SDS011;35491;49.142;9.210;2022-12-13T16:33:39;25.88;;;15.45;;
49584;SDS011;35491;49.142;9.210;2022-12-13T16:36:31;24.75;;;15.60;;
49584;SDS011;35491;49.142;9.210;2022-12-13T16:40:21;29.10;;;17.13;;
49584;SDS011;35491;49.142;9.210;2022-12-13T16:42:30;27.80;;;15.18;;
49584;SDS011;35491;49.142;9.210;2022-12-13T16:51:49;29.45;;;16.60;;
